createdAt,value
2022-12-18T00:01:17.589Z,23.83
2022-12-18T00:03:45.384Z,20.85
2022-12-18T00:06:14.802Z,21.00
2022-12-18T00:08:42.760Z,21.77
2022-12-18T00:11:12.834Z,18.52
2022-12-18T00:13:40.161Z,26.17
2022-12-18T00:16:10.594Z,19.85
2022-12-18T00:18:38.223Z,29.92
2022-12-18T00:21:08.530Z,27.30
2022-12-18T00:23:37.294Z,24.10
2022-12-18T00:26:07.203Z,25.52
2022-12-18T00:28:34.699Z,25.75
2022-12-18T00:31:13.378Z,17.50
2022-12-18T00:33:40.834Z,18.70
2022-12-18T00:36:12.519Z,16.85
2022-12-18T00:38:39.412Z,14.43
2022-12-18T00:41:08.290Z,16.20
2022-12-18T00:43:35.591Z,17.90
2022-12-18T00:46:02.901Z,20.45
2022-12-18T00:48:29.731Z,19.10
2022-12-18T00:50:56.415Z,12.95
2022-12-18T00:53:23.128Z,23.75
2022-12-18T00:55:49.760Z,11.48
2022-12-18T00:58:17.735Z,12.55
2022-12-18T01:00:44.996Z,15.93
2022-12-18T01:03:14.950Z,14.63
2022-12-18T01:05:42.861Z,22.38
2022-12-18T01:08:09.610Z,21.98
2022-12-18T01:10:36.309Z,18.95
2022-12-18T01:13:03.102Z,24.33
2022-12-18T01:15:29.758Z,19.45
2022-12-18T01:17:56.446Z,17.75
2022-12-18T01:20:23.177Z,16.48
2022-12-18T01:22:49.889Z,17.92
2022-12-18T01:25:16.642Z,15.38
2022-12-18T01:27:43.371Z,10.93
2022-12-18T01:30:10.538Z,11.13
2022-12-18T01:32:37.193Z,11.25
2022-12-18T01:35:04.563Z,9.98
2022-12-18T01:37:31.237Z,7.43
2022-12-18T01:39:57.905Z,10.50
2022-12-18T01:42:24.664Z,7.07
2022-12-18T01:44:59.258Z,8.77
2022-12-18T01:47:25.810Z,9.05
2022-12-18T01:49:53.638Z,15.50
2022-12-18T01:52:22.323Z,19.40
2022-12-18T01:54:52.349Z,10.50
2022-12-18T01:57:19.280Z,12.02
2022-12-18T01:59:50.994Z,14.18
2022-12-18T02:02:18.191Z,10.55
2022-12-18T02:04:49.349Z,9.15
2022-12-18T02:07:42.485Z,12.70
2022-12-18T02:13:04.024Z,12.65
2022-12-18T02:16:15.827Z,12.73
2022-12-18T02:18:48.763Z,14.38
2022-12-18T02:21:40.315Z,10.90
2022-12-18T02:24:25.288Z,13.98
2022-12-18T02:26:58.096Z,8.73
2022-12-18T02:29:33.711Z,8.48
2022-12-18T02:32:05.641Z,14.55
2022-12-18T02:34:36.170Z,5.63
2022-12-18T02:37:06.935Z,4.00
2022-12-18T02:39:35.284Z,7.60
2022-12-18T02:42:08.705Z,10.82
2022-12-18T02:44:47.381Z,13.15
2022-12-18T02:47:17.867Z,8.77
2022-12-18T02:49:44.550Z,11.95
2022-12-18T02:52:45.349Z,6.38
2022-12-18T02:55:30.693Z,10.55
2022-12-18T02:57:59.630Z,14.88
2022-12-18T03:03:06.519Z,14.55
2022-12-18T03:05:42.731Z,16.42
2022-12-18T03:08:16.669Z,8.45
2022-12-18T03:11:05.108Z,17.63
2022-12-18T03:13:37.231Z,20.50
2022-12-18T03:18:38.776Z,13.57
2022-12-18T03:21:08.377Z,15.50
2022-12-18T03:23:43.863Z,17.42
2022-12-18T03:26:14.045Z,6.80
2022-12-18T03:28:50.564Z,9.88
2022-12-18T03:31:20.194Z,7.78
2022-12-18T03:33:56.517Z,18.48
2022-12-18T03:36:24.946Z,8.27
2022-12-18T03:38:52.275Z,14.52
2022-12-18T03:41:21.867Z,9.70
2022-12-18T03:44:09.417Z,12.07
2022-12-18T03:46:52.177Z,12.30
2022-12-18T03:49:27.953Z,9.07
2022-12-18T03:52:18.837Z,14.02
2022-12-18T03:54:47.305Z,8.80
2022-12-18T03:57:22.356Z,12.90
2022-12-18T03:59:54.597Z,17.50
2022-12-18T04:02:23.837Z,16.95
2022-12-18T04:04:54.179Z,17.10
2022-12-18T04:07:22.419Z,10.73
2022-12-18T04:09:52.092Z,8.48
2022-12-18T04:12:18.798Z,10.80
2022-12-18T04:14:45.968Z,8.73
2022-12-18T04:17:12.649Z,14.05
2022-12-18T04:19:39.633Z,11.38
2022-12-18T04:22:07.755Z,16.00
2022-12-18T04:24:34.534Z,20.60
2022-12-18T04:27:01.185Z,14.15
2022-12-18T04:29:30.287Z,22.52
2022-12-18T04:31:57.122Z,17.20
2022-12-18T04:34:23.758Z,15.50
2022-12-18T04:36:50.550Z,21.60
2022-12-18T04:39:20.046Z,16.77
2022-12-18T04:41:46.686Z,21.88
2022-12-18T04:44:13.332Z,18.52
2022-12-18T04:46:40.162Z,13.27
2022-12-18T04:49:06.884Z,23.20
2022-12-18T04:51:33.519Z,14.88
2022-12-18T04:54:00.173Z,30.30
2022-12-18T04:56:26.776Z,18.90
2022-12-18T04:58:53.470Z,28.55
2022-12-18T05:01:20.478Z,19.25
2022-12-18T05:03:47.415Z,21.15
2022-12-18T05:06:14.257Z,18.98
2022-12-18T05:08:43.940Z,25.42
2022-12-18T05:11:16.591Z,24.55
2022-12-18T05:13:44.770Z,18.80
2022-12-18T05:16:11.870Z,21.52
2022-12-18T05:18:38.732Z,26.77
2022-12-18T05:21:05.803Z,24.15
2022-12-18T05:23:35.721Z,24.90
2022-12-18T05:26:05.482Z,18.80
2022-12-18T05:28:34.367Z,25.00
2022-12-18T05:31:03.372Z,18.65
2022-12-18T05:33:32.325Z,11.57
2022-12-18T05:36:03.762Z,26.05
2022-12-18T05:38:31.843Z,19.35
2022-12-18T05:40:58.718Z,28.42
2022-12-18T05:43:28.538Z,17.13
2022-12-18T05:45:56.346Z,13.80
2022-12-18T05:48:23.422Z,15.95
2022-12-18T05:50:51.737Z,13.65
2022-12-18T05:53:20.865Z,17.33
2022-12-18T05:55:48.428Z,19.27
2022-12-18T05:58:16.246Z,12.07
2022-12-18T06:00:46.793Z,16.23
2022-12-18T06:03:14.462Z,15.85
2022-12-18T06:05:44.073Z,16.63
2022-12-18T06:08:11.618Z,13.85
2022-12-18T06:10:38.775Z,21.92
2022-12-18T06:13:06.700Z,17.45
2022-12-18T06:15:33.950Z,11.50
2022-12-18T06:18:02.059Z,18.15
2022-12-18T06:20:33.615Z,15.85
2022-12-18T06:23:00.892Z,18.50
2022-12-18T06:25:27.602Z,16.90
2022-12-18T06:28:02.496Z,18.55
2022-12-18T06:30:29.099Z,14.80
2022-12-18T06:32:56.918Z,21.45
2022-12-18T06:35:24.376Z,12.85
2022-12-18T06:37:51.157Z,15.85
2022-12-18T06:40:18.017Z,16.00
2022-12-18T06:42:44.666Z,15.85
2022-12-18T06:45:12.458Z,11.30
2022-12-18T06:47:39.107Z,8.48
2022-12-18T06:50:06.616Z,11.77
2022-12-18T06:52:34.573Z,10.38
2022-12-18T06:55:01.634Z,12.65
2022-12-18T06:57:28.467Z,8.75
2022-12-18T06:59:55.507Z,7.55
2022-12-18T07:02:22.274Z,16.85
2022-12-18T07:04:51.834Z,14.32
2022-12-18T07:07:19.510Z,11.88
2022-12-18T07:09:46.131Z,11.10
2022-12-18T07:12:12.802Z,10.38
2022-12-18T07:14:39.433Z,10.65
2022-12-18T07:17:06.580Z,10.52
2022-12-18T07:19:34.023Z,9.40
2022-12-18T07:22:01.419Z,13.25
2022-12-18T07:24:28.581Z,7.63
2022-12-18T07:26:55.342Z,10.73
2022-12-18T07:29:22.042Z,6.65
2022-12-18T07:31:48.830Z,6.57
2022-12-18T07:34:16.334Z,7.68
2022-12-18T07:36:43.412Z,12.90
2022-12-18T07:39:12.426Z,10.32
2022-12-18T07:41:42.490Z,8.70
2022-12-18T07:44:13.641Z,7.95
2022-12-18T07:46:40.236Z,16.40
2022-12-18T07:49:06.968Z,15.13
2022-12-18T07:51:33.696Z,11.00
2022-12-18T07:54:00.281Z,8.68
2022-12-18T07:56:28.607Z,17.48
2022-12-18T07:58:55.652Z,15.48
2022-12-18T08:01:22.497Z,9.38
2022-12-18T08:03:49.918Z,13.23
2022-12-18T08:06:19.258Z,12.13
2022-12-18T08:08:48.377Z,16.48
2022-12-18T08:11:15.160Z,11.15
2022-12-18T08:13:42.277Z,19.17
2022-12-18T08:16:09.729Z,14.15
2022-12-18T08:18:38.131Z,15.98
2022-12-18T08:21:17.211Z,17.85
2022-12-18T08:23:44.394Z,13.18
2022-12-18T08:26:14.658Z,17.88
2022-12-18T08:28:42.362Z,15.18
2022-12-18T08:31:09.348Z,21.30
2022-12-18T08:33:37.652Z,13.02
2022-12-18T08:36:05.607Z,19.83
2022-12-18T08:38:35.561Z,15.73
2022-12-18T08:41:10.892Z,14.57
2022-12-18T08:43:58.065Z,21.35
2022-12-18T08:46:27.527Z,20.33
2022-12-18T08:48:56.295Z,20.05
2022-12-18T08:51:23.259Z,15.65
2022-12-18T08:53:50.446Z,22.90
2022-12-18T08:56:17.879Z,20.92
2022-12-18T08:58:44.947Z,18.73
2022-12-18T09:01:13.629Z,18.60
2022-12-18T09:03:41.426Z,21.05
2022-12-18T09:06:09.714Z,17.23
2022-12-18T09:08:38.103Z,14.50
2022-12-18T09:11:05.119Z,19.70
2022-12-18T09:13:31.810Z,12.98
2022-12-18T09:15:59.721Z,18.33
2022-12-18T09:18:26.428Z,22.80
2022-12-18T09:20:53.978Z,21.30
2022-12-18T09:23:22.038Z,19.75
2022-12-18T09:25:49.400Z,28.42
2022-12-18T09:28:18.620Z,17.88
2022-12-18T09:30:48.571Z,21.60
2022-12-18T09:33:15.841Z,20.67
2022-12-18T09:35:44.474Z,25.45
2022-12-18T09:38:17.235Z,21.50
2022-12-18T09:40:56.357Z,20.92
2022-12-18T09:43:28.311Z,20.73
2022-12-18T09:46:01.189Z,22.35
2022-12-18T09:48:36.890Z,23.38
2022-12-18T09:51:12.822Z,20.05
2022-12-18T09:53:41.432Z,16.85
2022-12-18T09:56:17.225Z,12.82
2022-12-18T09:58:56.308Z,14.32
2022-12-18T10:01:24.964Z,19.77
2022-12-18T10:03:53.065Z,11.27
2022-12-18T10:06:37.456Z,12.05
2022-12-18T10:09:39.886Z,16.55
2022-12-18T10:12:22.371Z,10.27
2022-12-18T10:15:08.356Z,13.68
2022-12-18T10:17:58.009Z,11.95
2022-12-18T10:20:46.403Z,11.55
2022-12-18T10:23:15.864Z,13.65
2022-12-18T10:26:05.409Z,14.63
2022-12-18T10:28:34.387Z,17.52
2022-12-18T10:31:01.292Z,14.90
2022-12-18T10:33:33.951Z,12.43
2022-12-18T10:36:01.357Z,12.77
2022-12-18T10:38:32.967Z,21.45
2022-12-18T10:41:07.231Z,16.15
2022-12-18T10:43:37.540Z,25.50
2022-12-18T10:46:10.550Z,16.05
2022-12-18T10:48:40.547Z,10.43
2022-12-18T10:51:12.844Z,16.08
2022-12-18T10:53:43.702Z,16.02
2022-12-18T10:56:10.660Z,26.92
2022-12-18T10:58:40.225Z,23.83
2022-12-18T11:01:22.141Z,25.42
2022-12-18T11:03:51.714Z,18.25
2022-12-18T11:06:22.781Z,22.33
2022-12-18T11:09:13.203Z,31.58
2022-12-18T11:11:41.224Z,31.90
2022-12-18T11:14:19.341Z,26.88
2022-12-18T11:17:23.933Z,21.35
2022-12-18T11:19:40.945Z,17.83
2022-12-18T11:22:28.844Z,22.77
2022-12-18T11:27:53.921Z,25.63
2022-12-18T11:30:38.908Z,22.17
2022-12-18T11:33:18.662Z,21.58
2022-12-18T11:35:53.537Z,21.40
2022-12-18T11:38:43.812Z,21.88
2022-12-18T11:41:54.968Z,21.65
2022-12-18T11:44:33.890Z,22.35
2022-12-18T11:47:10.561Z,22.92
2022-12-18T11:49:37.410Z,23.02
2022-12-18T11:52:25.324Z,18.00
2022-12-18T11:54:54.214Z,21.08
2022-12-18T11:57:35.957Z,18.40
2022-12-18T12:00:21.309Z,16.00
2022-12-18T12:03:18.264Z,19.42
2022-12-18T12:06:17.876Z,20.52
2022-12-18T12:09:10.564Z,23.70
2022-12-18T12:14:18.746Z,26.55
2022-12-18T12:16:45.417Z,18.77
2022-12-18T12:19:30.603Z,17.90
2022-12-18T12:22:31.723Z,22.33
2022-12-18T12:25:13.513Z,14.68
2022-12-18T12:28:07.587Z,13.70
2022-12-18T12:30:59.366Z,12.18
2022-12-18T12:33:45.559Z,16.90
2022-12-18T12:36:36.363Z,12.95
2022-12-18T12:39:10.914Z,11.95
2022-12-18T12:41:58.287Z,17.05
2022-12-18T12:44:35.722Z,18.92
2022-12-18T12:47:14.804Z,22.52
2022-12-18T12:49:48.769Z,25.48
2022-12-18T12:52:35.913Z,27.58
2022-12-18T12:55:11.537Z,18.10
2022-12-18T12:57:47.041Z,19.73
2022-12-18T13:00:25.305Z,19.15
2022-12-18T13:03:02.570Z,18.08
2022-12-18T13:05:39.705Z,16.38
2022-12-18T13:08:12.619Z,17.60
2022-12-18T13:10:41.789Z,12.23
2022-12-18T13:13:23.798Z,12.27
2022-12-18T13:16:07.377Z,10.82
2022-12-18T13:18:34.673Z,9.32
2022-12-18T13:21:03.222Z,14.85
2022-12-18T13:23:40.048Z,13.70
2022-12-18T13:26:07.396Z,14.05
2022-12-18T13:28:34.339Z,14.35
2022-12-18T13:31:02.745Z,10.02
2022-12-18T13:33:35.754Z,18.67
2022-12-18T13:36:32.898Z,12.52
2022-12-18T13:39:28.668Z,11.07
2022-12-18T13:42:05.529Z,22.25
2022-12-18T13:44:35.958Z,12.77
2022-12-18T13:47:27.067Z,20.98
2022-12-18T13:49:54.307Z,18.30
2022-12-18T13:52:27.169Z,17.13
2022-12-18T13:54:57.272Z,18.40
2022-12-18T13:57:31.406Z,23.23
2022-12-18T14:00:00.630Z,17.20
2022-12-18T14:02:29.653Z,15.88
2022-12-18T14:04:56.958Z,20.23
2022-12-18T14:07:33.116Z,19.60
2022-12-18T14:10:42.213Z,13.45
2022-12-18T14:13:11.714Z,16.42
2022-12-18T14:15:49.042Z,18.67
2022-12-18T14:18:15.580Z,19.88
2022-12-18T14:20:52.501Z,15.15
2022-12-18T14:23:42.973Z,15.00
2022-12-18T14:26:34.182Z,15.02
2022-12-18T14:29:18.993Z,18.77
2022-12-18T14:31:46.206Z,12.48
2022-12-18T14:34:20.257Z,16.52
2022-12-18T14:36:54.909Z,10.82
2022-12-18T14:39:21.822Z,11.07
2022-12-18T14:41:52.906Z,19.02
2022-12-18T14:44:19.623Z,12.73
2022-12-18T14:46:49.344Z,20.67
2022-12-18T14:49:28.021Z,14.55
2022-12-18T14:52:00.678Z,9.85
2022-12-18T14:54:29.039Z,12.68
2022-12-18T14:57:26.141Z,17.63
2022-12-18T14:59:53.899Z,21.73
2022-12-18T15:02:26.661Z,18.15
2022-12-18T15:05:12.689Z,37.50
2022-12-18T15:07:47.252Z,24.65
2022-12-18T15:10:18.484Z,21.60
2022-12-18T15:12:48.218Z,18.42
2022-12-18T15:15:45.950Z,18.65
2022-12-18T15:18:43.062Z,22.67
2022-12-18T15:21:12.043Z,19.45
2022-12-18T15:23:45.155Z,17.75
2022-12-18T15:26:15.588Z,25.67
2022-12-18T15:28:56.823Z,30.08
2022-12-18T15:31:24.414Z,26.75
2022-12-18T15:33:53.156Z,19.92
2022-12-18T15:36:26.125Z,26.02
2022-12-18T15:38:57.890Z,29.55
2022-12-18T15:41:35.749Z,40.55
2022-12-18T15:44:04.296Z,43.65
2022-12-18T15:46:32.109Z,43.55
2022-12-18T15:49:02.264Z,47.60
2022-12-18T15:51:39.136Z,51.05
2022-12-18T15:54:12.281Z,54.35
2022-12-18T15:56:57.073Z,45.60
2022-12-18T15:59:24.770Z,64.28
2022-12-18T16:01:53.977Z,42.10
2022-12-18T16:04:22.742Z,103.88
2022-12-18T16:09:37.573Z,52.80
2022-12-18T16:12:04.886Z,36.85
2022-12-18T16:14:33.960Z,40.70
2022-12-18T16:17:03.173Z,27.48
2022-12-18T16:19:30.489Z,57.75
2022-12-18T16:21:58.959Z,48.28
2022-12-18T16:24:28.531Z,54.65
2022-12-18T16:26:56.972Z,65.03
2022-12-18T16:29:27.834Z,56.85
2022-12-18T16:31:55.791Z,47.55
2022-12-18T16:34:28.541Z,40.65
2022-12-18T16:37:05.731Z,44.83
2022-12-18T16:39:35.131Z,52.80
2022-12-18T16:42:05.984Z,61.95
2022-12-18T16:44:34.169Z,55.25
2022-12-18T16:47:03.203Z,62.28
2022-12-18T16:49:30.372Z,64.30
2022-12-18T16:51:57.120Z,56.38
2022-12-18T16:54:24.114Z,59.63
2022-12-18T16:56:52.153Z,82.97
2022-12-18T16:59:19.917Z,68.63
2022-12-18T17:01:47.582Z,79.32
2022-12-18T17:04:15.663Z,72.70
2022-12-18T17:06:45.440Z,67.50
2022-12-18T17:09:16.975Z,94.93
2022-12-18T17:11:44.594Z,74.25
2022-12-18T17:14:15.245Z,71.05
2022-12-18T17:16:42.777Z,66.82
2022-12-18T17:19:16.607Z,51.33
2022-12-18T17:21:49.847Z,60.03
2022-12-18T17:24:17.064Z,38.10
2022-12-18T17:26:44.612Z,43.35
2022-12-18T17:29:17.340Z,30.05
2022-12-18T17:31:46.483Z,34.78
2022-12-18T17:34:14.348Z,30.35
2022-12-18T17:36:43.186Z,21.08
2022-12-18T17:39:18.754Z,32.55
2022-12-18T17:41:46.188Z,27.23
2022-12-18T17:44:13.320Z,30.48
2022-12-18T17:46:40.334Z,21.60
2022-12-18T17:49:07.161Z,28.83
2022-12-18T17:51:34.091Z,35.60
2022-12-18T17:54:00.873Z,25.70
2022-12-18T17:56:27.710Z,25.50
2022-12-18T17:58:54.451Z,18.50
2022-12-18T18:01:24.489Z,20.75
2022-12-18T18:03:53.922Z,17.13
2022-12-18T18:06:21.001Z,22.70
2022-12-18T18:08:48.119Z,37.63
2022-12-18T18:11:36.366Z,26.70
2022-12-18T18:14:05.937Z,29.58
2022-12-18T18:16:36.403Z,23.85
2022-12-18T18:19:06.772Z,30.63
2022-12-18T18:21:34.683Z,34.10
2022-12-18T18:24:03.205Z,26.52
2022-12-18T18:26:34.523Z,37.40
2022-12-18T18:29:03.957Z,25.53
2022-12-18T18:31:35.685Z,29.10
2022-12-18T18:34:08.334Z,31.13
2022-12-18T18:36:35.019Z,29.83
2022-12-18T18:39:02.294Z,33.35
2022-12-18T18:41:30.603Z,37.70
2022-12-18T18:44:00.119Z,29.52
2022-12-18T18:46:27.089Z,34.30
2022-12-18T18:48:55.216Z,35.03
2022-12-18T18:51:22.596Z,81.78
2022-12-18T18:53:50.954Z,38.53
2022-12-18T18:59:08.068Z,35.78
2022-12-18T19:01:35.015Z,43.63
2022-12-18T19:04:04.614Z,37.50
2022-12-18T19:06:31.602Z,49.47
2022-12-18T19:09:02.616Z,44.90
2022-12-18T19:11:47.980Z,31.50
2022-12-18T19:14:16.390Z,49.75
2022-12-18T19:16:45.432Z,38.67
2022-12-18T19:19:13.469Z,30.15
2022-12-18T19:21:40.551Z,27.30
2022-12-18T19:24:07.826Z,22.55
2022-12-18T19:26:37.531Z,12.80
2022-12-18T19:29:06.481Z,19.63
2022-12-18T19:31:35.999Z,19.63
2022-12-18T19:34:05.006Z,35.20
2022-12-18T19:36:33.418Z,34.35
2022-12-18T19:39:01.645Z,26.58
2022-12-18T19:41:31.247Z,22.92
2022-12-18T19:44:07.411Z,23.75
2022-12-18T19:46:35.986Z,21.38
2022-12-18T19:49:04.558Z,13.20
2022-12-18T19:51:32.702Z,13.60
2022-12-18T19:54:01.678Z,11.40
2022-12-18T19:56:34.443Z,16.45
2022-12-18T19:59:02.852Z,11.35
2022-12-18T20:01:30.580Z,18.02
2022-12-18T20:03:59.001Z,15.73
2022-12-18T20:06:36.285Z,18.98
2022-12-18T20:09:06.954Z,20.92
2022-12-18T20:11:39.644Z,11.23
2022-12-18T20:14:10.208Z,20.38
2022-12-18T20:16:37.000Z,19.02
2022-12-18T20:19:04.944Z,16.25
2022-12-18T20:21:31.816Z,15.05
2022-12-18T20:24:02.261Z,14.80
2022-12-18T20:26:29.395Z,21.17
2022-12-18T20:28:56.592Z,26.00
2022-12-18T20:31:24.381Z,35.60
2022-12-18T20:33:52.203Z,38.92
2022-12-18T20:36:24.611Z,36.50
2022-12-18T20:38:58.127Z,38.83
2022-12-18T20:41:31.678Z,43.05
2022-12-18T20:44:08.493Z,50.92
2022-12-18T20:46:48.175Z,58.42
2022-12-18T20:49:14.777Z,73.43
2022-12-18T20:51:41.500Z,96.50
2022-12-18T20:54:11.774Z,56.92
2022-12-18T20:56:38.694Z,73.22
2022-12-18T20:59:05.355Z,46.83
2022-12-18T21:01:33.447Z,43.55
2022-12-18T21:04:02.160Z,38.15
2022-12-18T21:06:28.834Z,32.80
2022-12-18T21:08:56.108Z,25.63
2022-12-18T21:11:41.064Z,20.95
2022-12-18T21:14:25.536Z,22.13
2022-12-18T21:16:55.002Z,21.40
2022-12-18T21:19:25.178Z,23.13
2022-12-18T21:21:56.620Z,15.25
2022-12-18T21:24:24.043Z,16.98
2022-12-18T21:26:51.659Z,12.73
2022-12-18T21:29:21.041Z,22.38
2022-12-18T21:31:48.594Z,14.73
2022-12-18T21:34:21.467Z,16.15
2022-12-18T21:36:48.637Z,17.55
2022-12-18T21:39:16.285Z,20.45
2022-12-18T21:42:02.710Z,22.80
2022-12-18T21:44:29.681Z,20.02
2022-12-18T21:47:02.435Z,22.05
2022-12-18T21:49:36.162Z,15.18
2022-12-18T21:52:02.926Z,19.92
2022-12-18T21:54:30.094Z,11.90
2022-12-18T21:57:05.033Z,8.60
2022-12-18T21:59:37.761Z,13.23
2022-12-18T22:02:13.480Z,9.63
2022-12-18T22:04:40.984Z,11.95
2022-12-18T22:07:08.632Z,12.57
2022-12-18T22:09:37.712Z,15.85
2022-12-18T22:12:05.256Z,31.58
2022-12-18T22:14:32.463Z,8.02
2022-12-18T22:16:59.116Z,5.35
2022-12-18T22:19:26.724Z,2.28
2022-12-18T22:21:54.254Z,3.17
2022-12-18T22:24:23.473Z,2.15
2022-12-18T22:26:52.934Z,1.23
2022-12-18T22:29:43.565Z,2.80
2022-12-18T22:32:16.979Z,2.50
2022-12-18T22:34:56.933Z,2.15
2022-12-18T22:37:26.220Z,2.65
2022-12-18T22:39:52.822Z,2.33
2022-12-18T22:42:19.775Z,1.67
2022-12-18T22:44:46.423Z,7.70
2022-12-18T22:47:15.666Z,6.55
2022-12-18T22:49:42.323Z,7.95
2022-12-18T22:52:09.547Z,4.68
2022-12-18T22:54:36.427Z,7.35
2022-12-18T22:57:03.243Z,4.00
2022-12-18T22:59:29.951Z,2.55
2022-12-18T23:01:59.060Z,4.20
2022-12-18T23:04:31.987Z,7.38
2022-12-18T23:07:07.522Z,7.85
2022-12-18T23:09:34.634Z,5.50
2022-12-18T23:12:01.890Z,4.50
2022-12-18T23:14:29.212Z,4.20
2022-12-18T23:16:56.434Z,1.70
2022-12-18T23:19:23.821Z,4.10
2022-12-18T23:21:51.336Z,10.07
2022-12-18T23:24:18.018Z,10.70
2022-12-18T23:26:44.636Z,6.07
2022-12-18T23:29:11.236Z,8.32
2022-12-18T23:31:39.855Z,14.60
2022-12-18T23:34:07.666Z,12.40
2022-12-18T23:36:43.873Z,7.10
2022-12-18T23:39:15.616Z,13.80
2022-12-18T23:41:55.485Z,8.98
2022-12-18T23:44:22.198Z,7.05
2022-12-18T23:46:48.929Z,16.77
2022-12-18T23:49:15.728Z,7.82
2022-12-18T23:51:42.441Z,8.35
2022-12-18T23:54:10.749Z,9.00
2022-12-18T23:56:37.666Z,12.68
2022-12-18T23:59:04.490Z,7.90
